createdAt,value
2023-09-05T00:01:15.128Z,14.80
2023-09-05T00:03:46.000Z,14.40
2023-09-05T00:06:15.114Z,14.70
2023-09-05T00:08:44.203Z,13.63
2023-09-05T00:11:13.621Z,13.40
2023-09-05T00:13:42.763Z,13.27
2023-09-05T00:16:11.925Z,11.90
2023-09-05T00:18:41.119Z,11.77
2023-09-05T00:21:11.924Z,12.00
2023-09-05T00:23:42.704Z,10.30
2023-09-05T00:26:11.789Z,9.13
2023-09-05T00:28:41.329Z,8.87
2023-09-05T00:31:12.051Z,7.63
2023-09-05T00:33:41.252Z,7.53
2023-09-05T00:36:13.372Z,7.60
2023-09-05T00:38:43.529Z,7.33
2023-09-05T00:41:13.046Z,7.03
2023-09-05T00:43:42.135Z,7.27
2023-09-05T00:46:12.260Z,8.43
2023-09-05T00:48:43.782Z,9.47
2023-09-05T00:51:14.841Z,9.17
2023-09-05T00:53:44.077Z,9.60
2023-09-05T00:56:13.951Z,9.70
2023-09-05T00:58:43.631Z,9.17
2023-09-05T01:01:12.708Z,7.70
2023-09-05T01:03:41.831Z,7.43
2023-09-05T01:06:16.475Z,8.63
2023-09-05T01:08:50.028Z,8.00
2023-09-05T01:11:21.140Z,7.90
2023-09-05T01:13:52.181Z,6.97
2023-09-05T01:16:21.292Z,6.97
2023-09-05T01:18:50.465Z,7.60
2023-09-05T01:21:28.906Z,7.77
2023-09-05T01:24:12.196Z,7.50
2023-09-05T01:26:42.800Z,6.70
2023-09-05T01:29:16.600Z,6.93
2023-09-05T01:31:46.496Z,7.00
2023-09-05T01:34:15.614Z,7.83
2023-09-05T01:36:44.683Z,7.07
2023-09-05T01:39:32.378Z,7.10
2023-09-05T01:42:02.025Z,7.37
2023-09-05T01:44:32.547Z,6.43
2023-09-05T01:47:01.776Z,6.93
2023-09-05T01:49:32.046Z,6.30
2023-09-05T01:52:01.261Z,6.33
2023-09-05T01:54:31.791Z,6.77
2023-09-05T01:57:00.846Z,6.50
2023-09-05T01:59:29.910Z,7.33
2023-09-05T02:01:59.145Z,5.97
2023-09-05T02:04:28.199Z,6.97
2023-09-05T02:06:57.258Z,7.10
2023-09-05T02:09:27.002Z,6.50
2023-09-05T02:11:57.736Z,6.03
2023-09-05T02:14:26.737Z,7.13
2023-09-05T02:16:55.866Z,6.53
2023-09-05T02:19:28.164Z,6.37
2023-09-05T02:21:57.682Z,6.20
2023-09-05T02:24:29.576Z,6.40
2023-09-05T02:27:00.111Z,6.17
2023-09-05T02:29:30.431Z,6.67
2023-09-05T02:31:59.674Z,6.70
2023-09-05T02:34:28.783Z,6.80
2023-09-05T02:37:00.739Z,5.57
2023-09-05T02:39:30.517Z,6.17
2023-09-05T02:42:04.558Z,5.10
2023-09-05T02:44:34.000Z,5.50
2023-09-05T02:47:03.132Z,6.00
2023-09-05T02:49:32.992Z,5.93
2023-09-05T02:52:02.211Z,5.73
2023-09-05T02:54:31.396Z,5.80
2023-09-05T02:57:00.449Z,5.00
2023-09-05T02:59:31.087Z,5.13
2023-09-05T03:02:00.270Z,5.63
2023-09-05T03:04:33.763Z,5.60
2023-09-05T03:07:03.707Z,5.30
2023-09-05T03:09:33.138Z,5.07
2023-09-05T03:12:02.375Z,5.83
2023-09-05T03:14:36.457Z,5.70
2023-09-05T03:17:06.335Z,5.90
2023-09-05T03:19:36.009Z,5.13
2023-09-05T03:22:05.469Z,5.30
2023-09-05T03:24:34.640Z,5.57
2023-09-05T03:27:04.606Z,6.67
2023-09-05T03:29:33.721Z,5.97
2023-09-05T03:32:04.446Z,5.83
2023-09-05T03:34:34.006Z,5.73
2023-09-05T03:37:03.200Z,5.30
2023-09-05T03:39:32.819Z,5.30
2023-09-05T03:42:02.080Z,5.27
2023-09-05T03:44:31.160Z,6.50
2023-09-05T03:47:00.354Z,5.60
2023-09-05T03:49:30.741Z,5.70
2023-09-05T03:51:59.811Z,6.17
2023-09-05T03:54:28.822Z,6.77
2023-09-05T03:56:57.916Z,6.10
2023-09-05T03:59:27.023Z,5.67
2023-09-05T04:01:56.052Z,6.17
2023-09-05T04:04:25.716Z,5.03
2023-09-05T04:06:56.279Z,6.07
2023-09-05T04:09:25.476Z,4.93
2023-09-05T04:11:56.182Z,5.93
2023-09-05T04:14:27.050Z,5.73
2023-09-05T04:16:56.274Z,5.80
2023-09-05T04:19:25.381Z,5.63
2023-09-05T04:21:55.783Z,5.97
2023-09-05T04:24:26.830Z,6.03
2023-09-05T04:26:56.159Z,6.97
2023-09-05T04:29:25.285Z,5.50
2023-09-05T04:31:54.428Z,6.00
2023-09-05T04:34:23.579Z,7.03
2023-09-05T04:36:52.619Z,5.90
2023-09-05T04:39:23.216Z,7.03
2023-09-05T04:41:52.296Z,6.37
2023-09-05T04:44:21.494Z,6.60
2023-09-05T04:46:50.769Z,6.00
2023-09-05T04:49:20.014Z,7.20
2023-09-05T04:51:49.075Z,6.30
2023-09-05T04:54:18.301Z,7.00
2023-09-05T04:56:48.767Z,5.93
2023-09-05T04:59:17.906Z,6.40
2023-09-05T05:01:46.913Z,6.33
2023-09-05T05:04:16.228Z,5.90
2023-09-05T05:06:45.307Z,6.33
2023-09-05T05:09:14.424Z,5.87
2023-09-05T05:11:43.554Z,5.47
2023-09-05T05:14:14.197Z,6.50
2023-09-05T05:16:45.066Z,5.60
2023-09-05T05:19:14.122Z,7.10
2023-09-05T05:21:43.202Z,5.57
2023-09-05T05:24:12.703Z,5.90
2023-09-05T05:26:42.293Z,7.10
2023-09-05T05:29:13.048Z,7.13
2023-09-05T05:31:42.218Z,6.33
2023-09-05T05:34:11.531Z,7.40
2023-09-05T05:36:40.591Z,7.43
2023-09-05T05:39:09.787Z,7.70
2023-09-05T05:41:38.986Z,7.00
2023-09-05T05:44:08.596Z,6.30
2023-09-05T05:46:39.166Z,6.47
2023-09-05T05:49:08.769Z,5.87
2023-09-05T05:51:38.466Z,8.00
2023-09-05T05:54:08.607Z,7.43
2023-09-05T05:56:37.933Z,6.90
2023-09-05T05:59:07.729Z,7.30
2023-09-05T06:01:40.040Z,6.93
2023-09-05T06:04:09.668Z,6.40
2023-09-05T06:06:39.438Z,6.63
2023-09-05T06:09:08.756Z,6.20
2023-09-05T06:11:37.900Z,7.37
2023-09-05T06:14:06.991Z,6.10
2023-09-05T06:16:37.865Z,6.47
2023-09-05T06:19:08.663Z,6.67
2023-09-05T06:22:29.298Z,5.90
2023-09-05T06:24:58.379Z,4.90
2023-09-05T06:27:27.434Z,6.13
2023-09-05T06:29:56.583Z,5.70
2023-09-05T06:32:27.016Z,4.97
2023-09-05T06:34:56.604Z,6.53
2023-09-05T06:37:30.031Z,7.37
2023-09-05T06:39:59.667Z,6.63
2023-09-05T06:42:28.786Z,4.57
2023-09-05T06:44:58.570Z,4.77
2023-09-05T06:47:29.321Z,4.40
2023-09-05T06:49:58.545Z,5.13
2023-09-05T06:52:27.949Z,6.03
2023-09-05T06:54:57.108Z,4.87
2023-09-05T06:57:26.974Z,6.13
2023-09-05T06:59:56.128Z,5.63
2023-09-05T07:02:25.230Z,4.93
2023-09-05T07:04:55.847Z,5.30
2023-09-05T07:07:24.990Z,5.80
2023-09-05T07:09:54.601Z,5.20
2023-09-05T07:12:23.650Z,5.43
2023-09-05T07:14:53.465Z,4.80
2023-09-05T07:17:22.524Z,6.97
2023-09-05T07:19:51.769Z,6.00
2023-09-05T07:22:23.419Z,4.83
2023-09-05T07:24:52.615Z,4.50
2023-09-05T07:27:21.888Z,4.63
2023-09-05T07:29:51.026Z,5.10
2023-09-05T07:32:20.157Z,5.10
2023-09-05T07:34:50.203Z,5.40
2023-09-05T07:37:19.532Z,4.87
2023-09-05T07:39:52.008Z,3.80
2023-09-05T07:42:30.123Z,4.63
2023-09-05T07:44:59.712Z,5.00
2023-09-05T07:47:28.890Z,4.77
2023-09-05T07:49:58.006Z,3.90
2023-09-05T07:52:27.082Z,4.50
2023-09-05T07:54:57.643Z,4.93
2023-09-05T07:57:26.748Z,4.20
2023-09-05T07:59:55.796Z,4.63
2023-09-05T08:02:25.266Z,4.73
2023-09-05T08:04:54.277Z,4.07
2023-09-05T08:07:23.454Z,4.23
2023-09-05T08:09:52.522Z,4.53
2023-09-05T08:12:23.135Z,3.30
2023-09-05T08:14:52.411Z,3.80
2023-09-05T08:17:21.678Z,4.07
2023-09-05T08:19:51.902Z,4.13
2023-09-05T08:22:21.022Z,4.50
2023-09-05T08:24:51.028Z,4.00
2023-09-05T08:27:30.200Z,4.10
2023-09-05T08:29:59.606Z,4.30
2023-09-05T08:32:30.414Z,4.03
2023-09-05T08:35:00.337Z,4.17
2023-09-05T08:37:29.327Z,3.57
2023-09-05T08:39:58.663Z,4.43
2023-09-05T08:42:32.253Z,3.80
2023-09-05T08:45:03.690Z,3.60
2023-09-05T08:47:33.754Z,4.00
2023-09-05T08:50:05.558Z,3.40
2023-09-05T08:52:38.011Z,3.70
2023-09-05T08:55:11.142Z,3.67
2023-09-05T08:57:44.322Z,4.00
2023-09-05T09:00:14.587Z,3.07
2023-09-05T09:02:43.780Z,3.83
2023-09-05T09:05:13.283Z,3.70
2023-09-05T09:07:42.520Z,3.60
2023-09-05T09:10:23.054Z,3.47
2023-09-05T09:12:56.174Z,3.30
2023-09-05T09:15:28.274Z,2.93
2023-09-05T09:17:58.444Z,3.40
2023-09-05T09:20:29.077Z,3.37
2023-09-05T09:22:58.121Z,3.53
2023-09-05T09:25:28.103Z,4.00
2023-09-05T09:27:59.876Z,2.83
2023-09-05T09:30:31.479Z,3.00
2023-09-05T09:33:03.000Z,2.90
2023-09-05T09:35:33.619Z,3.30
2023-09-05T09:38:05.468Z,2.80
2023-09-05T09:40:38.585Z,3.00
2023-09-05T09:43:11.323Z,3.33
2023-09-05T09:45:40.593Z,3.23
2023-09-05T09:48:12.691Z,2.53
2023-09-05T09:50:43.110Z,3.10
2023-09-05T09:53:14.244Z,2.73
2023-09-05T09:55:46.426Z,2.50
2023-09-05T09:58:19.951Z,2.60
2023-09-05T10:00:51.045Z,3.40
2023-09-05T10:03:21.871Z,2.93
2023-09-05T10:05:51.373Z,2.43
2023-09-05T10:08:22.947Z,4.20
2023-09-05T10:10:53.585Z,2.80
2023-09-05T10:13:28.595Z,3.20
2023-09-05T10:16:02.706Z,2.50
2023-09-05T10:18:33.789Z,2.97
2023-09-05T10:21:03.313Z,2.60
2023-09-05T10:23:35.728Z,2.93
2023-09-05T10:26:05.661Z,2.93
2023-09-05T10:28:36.306Z,3.90
2023-09-05T10:31:14.251Z,2.80
2023-09-05T10:33:47.361Z,3.67
2023-09-05T10:36:42.131Z,3.23
2023-09-05T10:39:34.030Z,3.37
2023-09-05T10:42:03.183Z,4.57
2023-09-05T10:44:35.272Z,2.83
2023-09-05T10:47:27.798Z,4.23
2023-09-05T10:50:01.283Z,3.97
2023-09-05T10:52:31.257Z,2.70
2023-09-05T10:55:01.188Z,2.60
2023-09-05T10:57:41.865Z,4.50
2023-09-05T11:00:39.653Z,4.57
2023-09-05T11:03:15.323Z,2.87
2023-09-05T11:05:47.170Z,4.07
2023-09-05T11:08:25.155Z,4.00
2023-09-05T11:10:56.788Z,2.70
2023-09-05T11:13:28.560Z,2.30
2023-09-05T11:16:04.695Z,2.67
2023-09-05T11:18:35.679Z,2.73
2023-09-05T11:21:08.537Z,2.10
2023-09-05T11:23:40.373Z,3.03
2023-09-05T11:26:12.824Z,2.63
2023-09-05T11:28:43.517Z,5.90
2023-09-05T11:31:17.822Z,6.10
2023-09-05T11:33:50.318Z,2.63
2023-09-05T11:36:21.715Z,2.80
2023-09-05T11:38:55.128Z,2.47
2023-09-05T11:41:26.540Z,2.40
2023-09-05T11:43:58.392Z,3.30
2023-09-05T11:46:31.964Z,2.63
2023-09-05T11:49:04.743Z,3.13
2023-09-05T11:51:35.923Z,2.20
2023-09-05T11:54:07.240Z,2.40
2023-09-05T11:56:38.458Z,2.57
2023-09-05T11:59:09.953Z,2.53
2023-09-05T12:01:42.442Z,2.53
2023-09-05T12:04:14.382Z,2.53
2023-09-05T12:06:44.706Z,1.70
2023-09-05T12:09:17.441Z,1.83
2023-09-05T12:11:48.347Z,2.00
2023-09-05T12:14:21.854Z,2.20
2023-09-05T12:16:56.197Z,2.27
2023-09-05T12:19:31.487Z,2.00
2023-09-05T12:22:02.124Z,2.53
2023-09-05T12:24:33.229Z,2.07
2023-09-05T12:27:04.774Z,2.53
2023-09-05T12:29:41.833Z,2.47
2023-09-05T12:32:14.194Z,2.27
2023-09-05T12:34:45.307Z,1.90
2023-09-05T12:37:17.132Z,2.07
2023-09-05T12:39:48.986Z,2.33
2023-09-05T12:42:21.994Z,1.90
2023-09-05T12:44:52.253Z,2.50
2023-09-05T12:47:24.569Z,2.50
2023-09-05T12:50:09.883Z,2.47
2023-09-05T12:52:46.028Z,2.30
2023-09-05T12:55:19.005Z,2.90
2023-09-05T12:57:50.524Z,2.37
2023-09-05T13:00:21.684Z,2.30
2023-09-05T13:02:59.364Z,2.50
2023-09-05T13:05:31.905Z,1.80
2023-09-05T13:08:09.492Z,2.40
2023-09-05T13:11:30.322Z,2.13
2023-09-05T13:18:58.500Z,2.40
2023-09-05T13:21:35.090Z,2.03
2023-09-05T13:24:08.415Z,2.47
2023-09-05T13:26:40.041Z,2.60
2023-09-05T13:29:09.691Z,3.30
2023-09-05T13:31:40.069Z,1.97
2023-09-05T13:34:10.779Z,2.90
2023-09-05T13:36:40.271Z,5.40
2023-09-05T13:39:09.839Z,2.37
2023-09-05T13:41:39.170Z,2.40
2023-09-05T13:44:09.333Z,2.40
2023-09-05T13:46:39.223Z,2.23
2023-09-05T13:49:10.644Z,2.07
2023-09-05T13:51:40.491Z,2.43
2023-09-05T13:54:09.835Z,2.97
2023-09-05T13:56:39.012Z,2.87
2023-09-05T13:59:08.893Z,2.17
2023-09-05T14:01:38.930Z,2.70
2023-09-05T14:04:11.609Z,2.20
2023-09-05T14:06:42.142Z,2.73
2023-09-05T14:09:11.655Z,1.87
2023-09-05T14:11:44.214Z,2.97
2023-09-05T14:14:17.256Z,2.10
2023-09-05T14:16:47.026Z,2.57
2023-09-05T14:19:17.854Z,2.80
2023-09-05T14:21:47.311Z,2.50
2023-09-05T14:24:17.656Z,2.40
2023-09-05T14:26:48.335Z,2.30
2023-09-05T14:29:18.197Z,2.53
2023-09-05T14:31:47.643Z,2.70
2023-09-05T14:34:18.494Z,2.80
2023-09-05T14:36:49.263Z,2.27
2023-09-05T14:39:19.024Z,2.43
2023-09-05T14:41:48.333Z,2.47
2023-09-05T14:44:18.476Z,2.40
2023-09-05T14:46:49.949Z,2.00
2023-09-05T14:49:21.055Z,2.70
2023-09-05T14:51:51.160Z,2.70
2023-09-05T14:54:20.690Z,2.63
2023-09-05T14:56:51.797Z,2.87
2023-09-05T14:59:21.441Z,2.13
2023-09-05T15:01:50.892Z,1.97
2023-09-05T15:04:21.685Z,2.90
2023-09-05T15:06:50.861Z,2.93
2023-09-05T15:09:23.217Z,2.10
2023-09-05T15:11:52.756Z,2.77
2023-09-05T15:14:21.892Z,2.97
2023-09-05T15:16:51.252Z,2.30
2023-09-05T15:19:22.368Z,2.03
2023-09-05T15:21:51.707Z,2.87
2023-09-05T15:24:21.709Z,2.10
2023-09-05T15:26:52.266Z,2.03
2023-09-05T15:29:21.626Z,2.30
2023-09-05T15:31:51.922Z,2.70
2023-09-05T15:34:22.638Z,2.23
2023-09-05T15:36:51.898Z,3.00
2023-09-05T15:39:21.138Z,2.40
2023-09-05T15:41:52.827Z,2.40
2023-09-05T15:44:22.088Z,2.33
2023-09-05T15:46:51.232Z,2.67
2023-09-05T15:49:21.784Z,2.63
2023-09-05T15:51:51.237Z,2.57
2023-09-05T15:54:20.888Z,2.43
2023-09-05T15:56:50.973Z,2.60
2023-09-05T15:59:20.244Z,2.80
2023-09-05T16:01:50.027Z,2.70
2023-09-05T16:04:19.580Z,2.47
2023-09-05T16:06:50.385Z,2.50
2023-09-05T16:09:21.497Z,2.70
2023-09-05T16:11:51.353Z,3.00
2023-09-05T16:14:21.138Z,2.97
2023-09-05T16:16:50.493Z,2.83
2023-09-05T16:19:19.837Z,3.00
2023-09-05T16:21:50.500Z,2.60
2023-09-05T16:24:19.729Z,3.57
2023-09-05T16:26:48.927Z,2.97
2023-09-05T16:29:18.082Z,2.90
2023-09-05T16:31:48.718Z,2.90
2023-09-05T16:34:17.944Z,2.40
2023-09-05T16:36:47.865Z,2.57
2023-09-05T16:39:18.508Z,3.30
2023-09-05T16:41:47.704Z,2.80
2023-09-05T16:44:17.220Z,2.70
2023-09-05T16:46:46.940Z,4.37
2023-09-05T16:49:16.408Z,3.53
2023-09-05T16:51:46.372Z,4.63
2023-09-05T16:54:15.717Z,3.87
2023-09-05T16:56:46.396Z,3.70
2023-09-05T16:59:15.606Z,4.40
2023-09-05T17:01:44.893Z,4.90
2023-09-05T17:04:15.167Z,6.20
2023-09-05T17:06:44.645Z,4.70
2023-09-05T17:09:13.946Z,5.17
2023-09-05T17:11:43.441Z,4.40
2023-09-05T17:14:13.934Z,3.67
2023-09-05T17:16:43.031Z,5.70
2023-09-05T17:19:12.415Z,5.00
2023-09-05T17:21:41.760Z,4.77
2023-09-05T17:24:11.035Z,4.00
2023-09-05T17:26:40.582Z,4.57
2023-09-05T17:29:09.801Z,4.70
2023-09-05T17:31:42.053Z,5.30
2023-09-05T17:34:13.129Z,4.50
2023-09-05T17:36:42.321Z,4.73
2023-09-05T17:39:11.553Z,4.57
2023-09-05T17:41:40.799Z,4.67
2023-09-05T17:44:09.966Z,4.27
2023-09-05T17:46:40.667Z,5.00
2023-09-05T17:49:10.357Z,4.30
2023-09-05T17:51:39.771Z,5.40
2023-09-05T17:54:09.058Z,5.20
2023-09-05T17:56:38.329Z,4.67
2023-09-05T17:59:07.475Z,4.63
2023-09-05T18:01:36.664Z,5.20
2023-09-05T18:04:07.941Z,6.33
2023-09-05T18:06:37.662Z,6.60
2023-09-05T18:09:07.433Z,6.13
2023-09-05T18:11:36.611Z,6.53
2023-09-05T18:14:08.319Z,5.40
2023-09-05T18:16:41.315Z,6.07
2023-09-05T18:19:12.179Z,5.80
2023-09-05T18:21:44.854Z,6.23
2023-09-05T18:24:14.488Z,5.63
2023-09-05T18:26:45.961Z,8.10
2023-09-05T18:29:16.591Z,6.90
2023-09-05T18:31:45.761Z,6.33
2023-09-05T18:34:37.760Z,5.57
2023-09-05T18:37:07.709Z,6.27
2023-09-05T18:39:38.090Z,6.10
2023-09-05T18:42:08.822Z,5.80
2023-09-05T18:44:39.774Z,7.17
2023-09-05T18:47:09.977Z,7.97
2023-09-05T18:49:42.368Z,7.80
2023-09-05T18:52:12.621Z,14.80
2023-09-05T18:54:42.775Z,8.20
2023-09-05T18:57:12.527Z,8.60
2023-09-05T18:59:41.795Z,8.40
2023-09-05T19:02:12.696Z,9.20
2023-09-05T19:04:43.458Z,9.80
2023-09-05T19:07:12.614Z,9.40
2023-09-05T19:09:41.806Z,15.20
2023-09-05T19:12:12.187Z,13.67
2023-09-05T19:14:41.408Z,10.83
2023-09-05T19:17:10.922Z,9.77
2023-09-05T19:19:40.816Z,10.00
2023-09-05T19:22:11.379Z,10.27
2023-09-05T19:24:41.007Z,8.30
2023-09-05T19:27:10.732Z,8.90
2023-09-05T19:29:39.782Z,7.83
2023-09-05T19:32:10.352Z,8.33
2023-09-05T19:34:40.740Z,7.80
2023-09-05T19:37:11.389Z,7.90
2023-09-05T19:39:40.755Z,8.70
2023-09-05T19:42:09.950Z,9.00
2023-09-05T19:44:40.350Z,8.17
2023-09-05T19:47:09.830Z,7.17
2023-09-05T19:49:39.510Z,7.97
2023-09-05T19:52:10.452Z,7.80
2023-09-05T19:54:39.918Z,6.77
2023-09-05T19:57:10.153Z,7.27
2023-09-05T19:59:39.514Z,8.13
2023-09-05T20:02:08.768Z,7.20
2023-09-05T20:04:38.038Z,6.43
2023-09-05T20:07:07.981Z,6.77
2023-09-05T20:09:40.126Z,7.67
2023-09-05T20:12:09.499Z,6.90
2023-09-05T20:14:38.629Z,7.23
2023-09-05T20:17:08.331Z,7.73
2023-09-05T20:19:38.365Z,7.40
2023-09-05T20:22:07.932Z,7.00
2023-09-05T20:24:39.177Z,7.47
2023-09-05T20:27:11.163Z,7.20
2023-09-05T20:29:40.392Z,7.33
2023-09-05T20:32:10.169Z,8.00
2023-09-05T20:34:40.966Z,7.00
2023-09-05T20:37:10.312Z,8.33
2023-09-05T20:39:40.950Z,6.80
2023-09-05T20:42:10.681Z,6.50
2023-09-05T20:44:41.317Z,7.07
2023-09-05T20:47:10.543Z,7.50
2023-09-05T20:49:41.047Z,7.30
2023-09-05T20:52:10.439Z,6.33
2023-09-05T20:54:41.085Z,6.23
2023-09-05T20:57:10.729Z,6.10
2023-09-05T20:59:39.904Z,5.90
2023-09-05T21:02:08.976Z,5.80
2023-09-05T21:04:38.185Z,6.00
2023-09-05T21:07:09.025Z,6.70
2023-09-05T21:09:39.719Z,5.40
2023-09-05T21:12:09.452Z,6.20
2023-09-05T21:14:38.471Z,6.03
2023-09-05T21:17:07.709Z,5.70
2023-09-05T21:19:36.970Z,6.10
2023-09-05T21:22:06.462Z,6.50
2023-09-05T21:24:37.059Z,5.40
2023-09-05T21:27:07.951Z,6.13
2023-09-05T21:29:37.083Z,5.47
2023-09-05T21:32:07.404Z,6.97
2023-09-05T21:34:37.109Z,6.27
2023-09-05T21:37:11.183Z,6.33
2023-09-05T21:39:40.696Z,6.27
2023-09-05T21:42:11.345Z,6.70
2023-09-05T21:44:40.669Z,6.77
2023-09-05T21:47:10.152Z,6.70
2023-09-05T21:49:39.406Z,6.83
2023-09-05T21:52:09.092Z,14.03
2023-09-05T21:54:38.516Z,8.67
2023-09-05T22:01:56.168Z,9.63
2023-09-05T22:04:27.489Z,9.30
2023-09-05T22:06:57.150Z,9.10
2023-09-05T22:09:27.378Z,8.23
2023-09-05T22:11:57.179Z,8.40
2023-09-05T22:14:26.589Z,8.83
2023-09-05T22:16:57.578Z,8.10
2023-09-05T22:19:30.009Z,9.87
2023-09-05T22:22:06.990Z,9.23
2023-09-05T22:24:36.888Z,9.10
2023-09-05T22:27:06.685Z,9.40
2023-09-05T22:29:36.577Z,9.73
2023-09-05T22:32:12.574Z,8.70
2023-09-05T22:34:43.830Z,9.83
2023-09-05T22:37:13.447Z,8.60
2023-09-05T22:39:43.203Z,10.00
2023-09-05T22:42:12.948Z,9.73
2023-09-05T22:44:44.557Z,9.70
2023-09-05T22:47:16.188Z,10.13
2023-09-05T22:49:47.035Z,9.90
2023-09-05T22:52:18.146Z,10.90
2023-09-05T23:00:10.725Z,10.00
2023-09-05T23:02:42.303Z,11.30
2023-09-05T23:05:14.066Z,9.23
2023-09-05T23:07:44.043Z,10.53
2023-09-05T23:10:13.978Z,10.70
2023-09-05T23:12:43.621Z,11.90
2023-09-05T23:15:13.974Z,10.90
2023-09-05T23:17:45.063Z,11.07
2023-09-05T23:20:15.140Z,10.67
2023-09-05T23:22:46.345Z,10.00
2023-09-05T23:25:15.659Z,10.77
2023-09-05T23:27:45.187Z,10.13
2023-09-05T23:30:15.373Z,9.03
2023-09-05T23:32:48.065Z,9.50
2023-09-05T23:35:19.471Z,9.93
2023-09-05T23:37:48.788Z,8.97
2023-09-05T23:40:18.744Z,10.03
2023-09-05T23:42:48.057Z,9.20
2023-09-05T23:45:17.597Z,10.30
2023-09-05T23:47:49.949Z,10.10
2023-09-05T23:50:20.320Z,10.23
2023-09-05T23:52:50.877Z,9.30
2023-09-05T23:55:21.122Z,10.03
2023-09-05T23:57:52.104Z,8.80
